sensor_id;sensor_type;location;lat;lon;timestamp;P1;durP1;ratioP1;P2;durP2;ratioP2
31083;SDS011;36333;51.382;0.016;2022-08-19T00:00:37;8.85;;;3.60;;
31083;SDS011;36333;51.382;0.016;2022-08-19T00:03:06;7.82;;;3.78;;
31083;SDS011;36333;51.382;0.016;2022-08-19T00:05:34;10.82;;;4.07;;
31083;SDS011;36333;51.382;0.016;2022-08-19T00:08:02;9.85;;;3.88;;
31083;SDS011;36333;51.382;0.016;2022-08-19T00:10:30;9.35;;;3.72;;
31083;SDS011;36333;51.382;0.016;2022-08-19T00:12:58;9.85;;;4.05;;
31083;SDS011;36333;51.382;0.016;2022-08-19T00:15:25;9.63;;;3.90;;
31083;SDS011;36333;51.382;0.016;2022-08-19T00:17:53;12.77;;;3.80;;
31083;SDS011;36333;51.382;0.016;2022-08-19T00:22:48;9.43;;;3.65;;
31083;SDS011;36333;51.382;0.016;2022-08-19T00:25:17;10.25;;;3.53;;
31083;SDS011;36333;51.382;0.016;2022-08-19T00:27:56;8.85;;;3.35;;
31083;SDS011;36333;51.382;0.016;2022-08-19T00:30:26;8.43;;;3.58;;
31083;SDS011;36333;51.382;0.016;2022-08-19T00:32:57;8.38;;;3.50;;
31083;SDS011;36333;51.382;0.016;2022-08-19T00:35:24;7.50;;;3.88;;
31083;SDS011;36333;51.382;0.016;2022-08-19T00:37:54;11.20;;;3.60;;
31083;SDS011;36333;51.382;0.016;2022-08-19T00:40:22;9.15;;;3.58;;
31083;SDS011;36333;51.382;0.016;2022-08-19T00:42:49;9.93;;;3.58;;
31083;SDS011;36333;51.382;0.016;2022-08-19T00:45:22;8.77;;;3.58;;
31083;SDS011;36333;51.382;0.016;2022-08-19T00:47:51;9.05;;;3.65;;
31083;SDS011;36333;51.382;0.016;2022-08-19T00:50:19;7.55;;;3.67;;
31083;SDS011;36333;51.382;0.016;2022-08-19T00:52:48;11.38;;;4.13;;
31083;SDS011;36333;51.382;0.016;2022-08-19T00:55:19;7.60;;;3.33;;
31083;SDS011;36333;51.382;0.016;2022-08-19T00:57:58;12.82;;;4.00;;
31083;SDS011;36333;51.382;0.016;2022-08-19T01:00:32;10.82;;;3.70;;
31083;SDS011;36333;51.382;0.016;2022-08-19T01:03:07;8.95;;;3.72;;
31083;SDS011;36333;51.382;0.016;2022-08-19T01:05:38;9.95;;;3.65;;
31083;SDS011;36333;51.382;0.016;2022-08-19T01:08:09;6.70;;;3.38;;
31083;SDS011;36333;51.382;0.016;2022-08-19T01:13:07;11.52;;;3.97;;
31083;SDS011;36333;51.382;0.016;2022-08-19T01:15:43;12.82;;;4.45;;
31083;SDS011;36333;51.382;0.016;2022-08-19T01:18:15;10.07;;;3.92;;
31083;SDS011;36333;51.382;0.016;2022-08-19T01:20:44;7.53;;;3.75;;
31083;SDS011;36333;51.382;0.016;2022-08-19T01:23:12;7.18;;;3.65;;
31083;SDS011;36333;51.382;0.016;2022-08-19T01:25:42;10.98;;;3.97;;
31083;SDS011;36333;51.382;0.016;2022-08-19T01:28:19;12.73;;;4.00;;
31083;SDS011;36333;51.382;0.016;2022-08-19T01:31:14;7.53;;;3.67;;
31083;SDS011;36333;51.382;0.016;2022-08-19T01:33:54;11.73;;;5.05;;
31083;SDS011;36333;51.382;0.016;2022-08-19T01:36:28;13.77;;;4.88;;
31083;SDS011;36333;51.382;0.016;2022-08-19T01:39:00;11.95;;;4.90;;
31083;SDS011;36333;51.382;0.016;2022-08-19T01:41:28;9.25;;;5.45;;
31083;SDS011;36333;51.382;0.016;2022-08-19T01:43:56;10.35;;;5.53;;
31083;SDS011;36333;51.382;0.016;2022-08-19T01:46:44;16.58;;;5.57;;
31083;SDS011;36333;51.382;0.016;2022-08-19T01:49:12;14.77;;;6.18;;
31083;SDS011;36333;51.382;0.016;2022-08-19T01:51:39;12.25;;;6.07;;
31083;SDS011;36333;51.382;0.016;2022-08-19T01:54:08;13.35;;;6.25;;
31083;SDS011;36333;51.382;0.016;2022-08-19T01:56:36;12.82;;;6.30;;
31083;SDS011;36333;51.382;0.016;2022-08-19T01:59:06;14.13;;;6.88;;
31083;SDS011;36333;51.382;0.016;2022-08-19T02:01:38;14.85;;;7.32;;
31083;SDS011;36333;51.382;0.016;2022-08-19T02:06:34;11.73;;;6.75;;
31083;SDS011;36333;51.382;0.016;2022-08-19T02:09:03;11.73;;;6.30;;
31083;SDS011;36333;51.382;0.016;2022-08-19T02:11:33;14.18;;;6.53;;
31083;SDS011;36333;51.382;0.016;2022-08-19T02:14:04;15.57;;;6.70;;
31083;SDS011;36333;51.382;0.016;2022-08-19T02:16:34;13.02;;;6.85;;
31083;SDS011;36333;51.382;0.016;2022-08-19T02:19:02;16.60;;;6.82;;
31083;SDS011;36333;51.382;0.016;2022-08-19T02:21:31;15.23;;;6.63;;
31083;SDS011;36333;51.382;0.016;2022-08-19T02:24:00;15.30;;;6.50;;
31083;SDS011;36333;51.382;0.016;2022-08-19T02:26:28;14.55;;;6.38;;
31083;SDS011;36333;51.382;0.016;2022-08-19T02:28:55;14.20;;;6.57;;
31083;SDS011;36333;51.382;0.016;2022-08-19T02:31:24;15.95;;;6.25;;
31083;SDS011;36333;51.382;0.016;2022-08-19T02:33:52;13.68;;;6.63;;
31083;SDS011;36333;51.382;0.016;2022-08-19T02:36:23;12.82;;;6.60;;
31083;SDS011;36333;51.382;0.016;2022-08-19T02:38:52;15.48;;;7.00;;
31083;SDS011;36333;51.382;0.016;2022-08-19T02:41:22;11.55;;;6.13;;
31083;SDS011;36333;51.382;0.016;2022-08-19T02:43:54;14.45;;;6.57;;
31083;SDS011;36333;51.382;0.016;2022-08-19T02:46:45;14.98;;;6.70;;
31083;SDS011;36333;51.382;0.016;2022-08-19T02:49:14;10.77;;;6.13;;
31083;SDS011;36333;51.382;0.016;2022-08-19T02:51:44;13.57;;;6.30;;
31083;SDS011;36333;51.382;0.016;2022-08-19T02:54:13;14.82;;;7.10;;
31083;SDS011;36333;51.382;0.016;2022-08-19T02:56:42;9.70;;;5.90;;
31083;SDS011;36333;51.382;0.016;2022-08-19T02:59:11;14.30;;;6.30;;
31083;SDS011;36333;51.382;0.016;2022-08-19T03:01:40;14.77;;;6.25;;
31083;SDS011;36333;51.382;0.016;2022-08-19T03:04:10;13.75;;;5.55;;
31083;SDS011;36333;51.382;0.016;2022-08-19T03:06:39;12.07;;;5.57;;
31083;SDS011;36333;51.382;0.016;2022-08-19T03:09:08;12.07;;;6.05;;
31083;SDS011;36333;51.382;0.016;2022-08-19T03:11:37;11.85;;;5.72;;
31083;SDS011;36333;51.382;0.016;2022-08-19T03:14:05;13.40;;;5.97;;
31083;SDS011;36333;51.382;0.016;2022-08-19T03:16:41;10.82;;;5.30;;
31083;SDS011;36333;51.382;0.016;2022-08-19T03:19:17;11.32;;;5.53;;
31083;SDS011;36333;51.382;0.016;2022-08-19T03:21:46;12.70;;;5.60;;
31083;SDS011;36333;51.382;0.016;2022-08-19T03:24:14;9.75;;;5.68;;
31083;SDS011;36333;51.382;0.016;2022-08-19T03:26:45;12.85;;;5.72;;
31083;SDS011;36333;51.382;0.016;2022-08-19T03:29:15;11.35;;;5.85;;
31083;SDS011;36333;51.382;0.016;2022-08-19T03:31:56;12.45;;;6.00;;
31083;SDS011;36333;51.382;0.016;2022-08-19T03:34:32;12.40;;;6.32;;
31083;SDS011;36333;51.382;0.016;2022-08-19T03:37:08;12.98;;;6.65;;
31083;SDS011;36333;51.382;0.016;2022-08-19T03:39:39;17.42;;;6.88;;
31083;SDS011;36333;51.382;0.016;2022-08-19T03:42:08;15.85;;;6.57;;
31083;SDS011;36333;51.382;0.016;2022-08-19T03:44:56;15.07;;;6.85;;
31083;SDS011;36333;51.382;0.016;2022-08-19T03:47:25;16.70;;;6.93;;
31083;SDS011;36333;51.382;0.016;2022-08-19T03:49:52;12.68;;;6.85;;
31083;SDS011;36333;51.382;0.016;2022-08-19T03:52:20;15.13;;;7.18;;
31083;SDS011;36333;51.382;0.016;2022-08-19T03:54:48;14.57;;;6.80;;
31083;SDS011;36333;51.382;0.016;2022-08-19T03:57:15;14.43;;;7.80;;
31083;SDS011;36333;51.382;0.016;2022-08-19T03:59:43;18.92;;;8.63;;
31083;SDS011;36333;51.382;0.016;2022-08-19T04:02:11;14.75;;;7.93;;
31083;SDS011;36333;51.382;0.016;2022-08-19T04:04:40;18.08;;;7.82;;
31083;SDS011;36333;51.382;0.016;2022-08-19T04:07:11;15.85;;;7.78;;
31083;SDS011;36333;51.382;0.016;2022-08-19T04:09:42;14.27;;;8.15;;
31083;SDS011;36333;51.382;0.016;2022-08-19T04:12:10;16.35;;;7.65;;
31083;SDS011;36333;51.382;0.016;2022-08-19T04:14:38;14.25;;;7.50;;
31083;SDS011;36333;51.382;0.016;2022-08-19T04:17:06;11.18;;;7.22;;
31083;SDS011;36333;51.382;0.016;2022-08-19T04:19:34;17.85;;;8.60;;
31083;SDS011;36333;51.382;0.016;2022-08-19T04:22:02;15.70;;;7.85;;
31083;SDS011;36333;51.382;0.016;2022-08-19T04:24:31;17.40;;;7.80;;
31083;SDS011;36333;51.382;0.016;2022-08-19T04:29:27;13.38;;;7.60;;
31083;SDS011;36333;51.382;0.016;2022-08-19T04:31:56;13.27;;;8.20;;
31083;SDS011;36333;51.382;0.016;2022-08-19T04:34:26;15.10;;;8.63;;
31083;SDS011;36333;51.382;0.016;2022-08-19T04:36:56;14.07;;;8.48;;
31083;SDS011;36333;51.382;0.016;2022-08-19T04:39:29;12.40;;;7.47;;
31083;SDS011;36333;51.382;0.016;2022-08-19T04:42:30;12.25;;;7.80;;
31083;SDS011;36333;51.382;0.016;2022-08-19T04:45:11;12.93;;;7.47;;
31083;SDS011;36333;51.382;0.016;2022-08-19T04:47:41;12.30;;;8.10;;
31083;SDS011;36333;51.382;0.016;2022-08-19T04:50:27;14.85;;;8.43;;
31083;SDS011;36333;51.382;0.016;2022-08-19T04:52:55;16.20;;;9.32;;
31083;SDS011;36333;51.382;0.016;2022-08-19T04:57:53;12.45;;;7.93;;
31083;SDS011;36333;51.382;0.016;2022-08-19T05:00:21;15.65;;;9.05;;
31083;SDS011;36333;51.382;0.016;2022-08-19T05:05:17;15.02;;;8.52;;
31083;SDS011;36333;51.382;0.016;2022-08-19T05:07:44;14.82;;;8.00;;
31083;SDS011;36333;51.382;0.016;2022-08-19T05:10:12;11.98;;;7.63;;
31083;SDS011;36333;51.382;0.016;2022-08-19T05:12:40;11.50;;;7.68;;
31083;SDS011;36333;51.382;0.016;2022-08-19T05:15:08;10.20;;;7.13;;
31083;SDS011;36333;51.382;0.016;2022-08-19T05:20:06;11.82;;;6.70;;
31083;SDS011;36333;51.382;0.016;2022-08-19T05:22:52;10.65;;;7.00;;
31083;SDS011;36333;51.382;0.016;2022-08-19T05:27:49;9.52;;;5.55;;
31083;SDS011;36333;51.382;0.016;2022-08-19T05:30:17;9.77;;;5.25;;
31083;SDS011;36333;51.382;0.016;2022-08-19T05:32:59;9.82;;;5.57;;
31083;SDS011;36333;51.382;0.016;2022-08-19T05:35:27;8.40;;;5.75;;
31083;SDS011;36333;51.382;0.016;2022-08-19T05:38:00;7.05;;;5.00;;
31083;SDS011;36333;51.382;0.016;2022-08-19T05:40:28;8.75;;;5.80;;
31083;SDS011;36333;51.382;0.016;2022-08-19T05:42:55;9.00;;;4.65;;
31083;SDS011;36333;51.382;0.016;2022-08-19T05:45:23;9.30;;;4.38;;
31083;SDS011;36333;51.382;0.016;2022-08-19T05:47:51;6.90;;;3.72;;
31083;SDS011;36333;51.382;0.016;2022-08-19T05:50:19;5.93;;;3.45;;
31083;SDS011;36333;51.382;0.016;2022-08-19T05:52:47;6.68;;;2.70;;
31083;SDS011;36333;51.382;0.016;2022-08-19T05:55:16;5.53;;;2.35;;
31083;SDS011;36333;51.382;0.016;2022-08-19T05:57:47;6.47;;;2.42;;
31083;SDS011;36333;51.382;0.016;2022-08-19T06:02:47;5.30;;;2.25;;
31083;SDS011;36333;51.382;0.016;2022-08-19T06:07:42;2.90;;;1.45;;
31083;SDS011;36333;51.382;0.016;2022-08-19T06:10:10;5.00;;;1.55;;
31083;SDS011;36333;51.382;0.016;2022-08-19T06:12:38;3.35;;;1.27;;
31083;SDS011;36333;51.382;0.016;2022-08-19T06:15:11;3.28;;;1.20;;
31083;SDS011;36333;51.382;0.016;2022-08-19T06:17:40;2.80;;;0.90;;
31083;SDS011;36333;51.382;0.016;2022-08-19T06:20:12;1.83;;;0.70;;
31083;SDS011;36333;51.382;0.016;2022-08-19T06:22:43;3.55;;;0.95;;
31083;SDS011;36333;51.382;0.016;2022-08-19T06:25:14;2.58;;;0.65;;
31083;SDS011;36333;51.382;0.016;2022-08-19T06:30:29;3.15;;;0.98;;
31083;SDS011;36333;51.382;0.016;2022-08-19T06:32:58;2.38;;;0.68;;
31083;SDS011;36333;51.382;0.016;2022-08-19T06:35:25;2.88;;;0.80;;
31083;SDS011;36333;51.382;0.016;2022-08-19T06:37:53;4.25;;;0.40;;
31083;SDS011;36333;51.382;0.016;2022-08-19T06:40:21;2.22;;;0.57;;
31083;SDS011;36333;51.382;0.016;2022-08-19T06:42:49;1.95;;;0.70;;
31083;SDS011;36333;51.382;0.016;2022-08-19T06:45:21;3.30;;;0.52;;
31083;SDS011;36333;51.382;0.016;2022-08-19T06:48:00;2.65;;;0.50;;
31083;SDS011;36333;51.382;0.016;2022-08-19T06:50:27;3.20;;;0.70;;
31083;SDS011;36333;51.382;0.016;2022-08-19T06:52:55;3.88;;;0.70;;
31083;SDS011;36333;51.382;0.016;2022-08-19T06:55:27;1.42;;;0.50;;
31083;SDS011;36333;51.382;0.016;2022-08-19T06:58:01;1.00;;;0.50;;
31083;SDS011;36333;51.382;0.016;2022-08-19T07:00:30;2.28;;;0.60;;
31083;SDS011;36333;51.382;0.016;2022-08-19T07:02:58;5.05;;;0.60;;
31083;SDS011;36333;51.382;0.016;2022-08-19T07:05:39;2.97;;;0.60;;
31083;SDS011;36333;51.382;0.016;2022-08-19T07:10:42;3.72;;;0.50;;
31083;SDS011;36333;51.382;0.016;2022-08-19T07:13:11;1.30;;;0.50;;
31083;SDS011;36333;51.382;0.016;2022-08-19T07:15:39;3.17;;;0.68;;
31083;SDS011;36333;51.382;0.016;2022-08-19T07:18:07;3.63;;;0.90;;
31083;SDS011;36333;51.382;0.016;2022-08-19T07:20:38;5.25;;;0.88;;
31083;SDS011;36333;51.382;0.016;2022-08-19T07:23:08;1.55;;;0.60;;
31083;SDS011;36333;51.382;0.016;2022-08-19T07:25:42;3.95;;;1.00;;
31083;SDS011;36333;51.382;0.016;2022-08-19T07:28:19;3.25;;;0.68;;
31083;SDS011;36333;51.382;0.016;2022-08-19T07:30:50;5.80;;;1.38;;
31083;SDS011;36333;51.382;0.016;2022-08-19T07:33:19;4.15;;;0.80;;
31083;SDS011;36333;51.382;0.016;2022-08-19T07:35:46;3.17;;;0.90;;
31083;SDS011;36333;51.382;0.016;2022-08-19T07:38:14;4.10;;;0.85;;
31083;SDS011;36333;51.382;0.016;2022-08-19T07:40:43;3.33;;;0.90;;
31083;SDS011;36333;51.382;0.016;2022-08-19T07:43:13;3.30;;;0.80;;
31083;SDS011;36333;51.382;0.016;2022-08-19T07:45:44;1.38;;;0.70;;
31083;SDS011;36333;51.382;0.016;2022-08-19T07:50:41;2.55;;;0.57;;
31083;SDS011;36333;51.382;0.016;2022-08-19T07:53:09;3.72;;;0.85;;
31083;SDS011;36333;51.382;0.016;2022-08-19T07:55:36;3.05;;;0.70;;
31083;SDS011;36333;51.382;0.016;2022-08-19T07:58:10;2.45;;;0.70;;
31083;SDS011;36333;51.382;0.016;2022-08-19T08:00:40;3.78;;;0.88;;
31083;SDS011;36333;51.382;0.016;2022-08-19T08:03:08;1.55;;;0.60;;
31083;SDS011;36333;51.382;0.016;2022-08-19T08:08:22;4.55;;;1.05;;
31083;SDS011;36333;51.382;0.016;2022-08-19T08:11:18;3.65;;;0.70;;
31083;SDS011;36333;51.382;0.016;2022-08-19T08:13:47;1.85;;;0.60;;
31083;SDS011;36333;51.382;0.016;2022-08-19T08:16:28;2.70;;;0.70;;
31083;SDS011;36333;51.382;0.016;2022-08-19T08:19:00;3.70;;;0.80;;
31083;SDS011;36333;51.382;0.016;2022-08-19T08:21:28;4.03;;;1.00;;
31083;SDS011;36333;51.382;0.016;2022-08-19T08:23:55;5.28;;;1.10;;
31083;SDS011;36333;51.382;0.016;2022-08-19T08:26:23;4.38;;;0.98;;
31083;SDS011;36333;51.382;0.016;2022-08-19T08:28:52;1.45;;;0.63;;
31083;SDS011;36333;51.382;0.016;2022-08-19T08:31:23;3.38;;;0.88;;
31083;SDS011;36333;51.382;0.016;2022-08-19T08:33:50;3.35;;;0.60;;
31083;SDS011;36333;51.382;0.016;2022-08-19T08:36:18;4.60;;;0.80;;
31083;SDS011;36333;51.382;0.016;2022-08-19T08:38:45;4.70;;;1.00;;
31083;SDS011;36333;51.382;0.016;2022-08-19T08:44:00;2.67;;;0.77;;
31083;SDS011;36333;51.382;0.016;2022-08-19T08:46:39;4.30;;;0.63;;
31083;SDS011;36333;51.382;0.016;2022-08-19T08:52:32;2.13;;;0.75;;
31083;SDS011;36333;51.382;0.016;2022-08-19T08:55:27;2.40;;;0.73;;
31083;SDS011;36333;51.382;0.016;2022-08-19T08:58:10;3.35;;;0.98;;
31083;SDS011;36333;51.382;0.016;2022-08-19T09:00:44;3.30;;;0.90;;
31083;SDS011;36333;51.382;0.016;2022-08-19T09:03:22;3.42;;;0.90;;
31083;SDS011;36333;51.382;0.016;2022-08-19T09:06:02;3.60;;;1.20;;
31083;SDS011;36333;51.382;0.016;2022-08-19T09:08:49;2.97;;;0.93;;
31083;SDS011;36333;51.382;0.016;2022-08-19T09:14:37;3.47;;;0.80;;
31083;SDS011;36333;51.382;0.016;2022-08-19T09:17:19;6.50;;;1.30;;
31083;SDS011;36333;51.382;0.016;2022-08-19T09:19:53;4.30;;;1.13;;
31083;SDS011;36333;51.382;0.016;2022-08-19T09:22:39;4.95;;;1.63;;
31083;SDS011;36333;51.382;0.016;2022-08-19T09:25:21;5.15;;;0.85;;
31083;SDS011;36333;51.382;0.016;2022-08-19T09:27:55;5.10;;;1.10;;
31083;SDS011;36333;51.382;0.016;2022-08-19T09:30:30;3.35;;;0.90;;
31083;SDS011;36333;51.382;0.016;2022-08-19T09:33:06;3.83;;;1.00;;
31083;SDS011;36333;51.382;0.016;2022-08-19T09:35:34;3.03;;;0.90;;
31083;SDS011;36333;51.382;0.016;2022-08-19T09:38:20;4.40;;;0.98;;
31083;SDS011;36333;51.382;0.016;2022-08-19T09:40:48;5.82;;;1.20;;
31083;SDS011;36333;51.382;0.016;2022-08-19T09:43:17;4.53;;;1.15;;
31083;SDS011;36333;51.382;0.016;2022-08-19T09:46:00;4.97;;;1.02;;
31083;SDS011;36333;51.382;0.016;2022-08-19T09:48:36;5.28;;;1.13;;
31083;SDS011;36333;51.382;0.016;2022-08-19T09:51:05;6.15;;;1.17;;
31083;SDS011;36333;51.382;0.016;2022-08-19T09:53:38;5.78;;;0.88;;
31083;SDS011;36333;51.382;0.016;2022-08-19T09:56:06;4.30;;;1.15;;
31083;SDS011;36333;51.382;0.016;2022-08-19T09:58:35;3.45;;;0.90;;
31083;SDS011;36333;51.382;0.016;2022-08-19T10:01:04;5.03;;;1.00;;
31083;SDS011;36333;51.382;0.016;2022-08-19T10:03:34;3.65;;;1.00;;
31083;SDS011;36333;51.382;0.016;2022-08-19T10:06:03;5.57;;;1.10;;
31083;SDS011;36333;51.382;0.016;2022-08-19T10:08:43;3.38;;;1.10;;
31083;SDS011;36333;51.382;0.016;2022-08-19T10:11:16;4.30;;;1.13;;
31083;SDS011;36333;51.382;0.016;2022-08-19T10:14:05;6.38;;;1.35;;
31083;SDS011;36333;51.382;0.016;2022-08-19T10:16:36;7.03;;;1.30;;
31083;SDS011;36333;51.382;0.016;2022-08-19T10:19:14;5.00;;;1.08;;
31083;SDS011;36333;51.382;0.016;2022-08-19T10:21:52;5.30;;;1.20;;
31083;SDS011;36333;51.382;0.016;2022-08-19T10:24:29;5.10;;;1.10;;
31083;SDS011;36333;51.382;0.016;2022-08-19T10:26:57;4.00;;;1.10;;
31083;SDS011;36333;51.382;0.016;2022-08-19T10:29:26;5.85;;;1.23;;
31083;SDS011;36333;51.382;0.016;2022-08-19T10:32:06;7.75;;;1.10;;
31083;SDS011;36333;51.382;0.016;2022-08-19T10:35:01;4.03;;;1.10;;
31083;SDS011;36333;51.382;0.016;2022-08-19T10:37:32;4.15;;;1.25;;
31083;SDS011;36333;51.382;0.016;2022-08-19T10:40:07;4.95;;;1.40;;
31083;SDS011;36333;51.382;0.016;2022-08-19T10:42:40;4.45;;;1.20;;
31083;SDS011;36333;51.382;0.016;2022-08-19T10:45:07;5.13;;;1.10;;
31083;SDS011;36333;51.382;0.016;2022-08-19T10:47:36;4.78;;;1.20;;
31083;SDS011;36333;51.382;0.016;2022-08-19T10:50:04;4.28;;;1.50;;
31083;SDS011;36333;51.382;0.016;2022-08-19T10:52:56;4.75;;;1.42;;
31083;SDS011;36333;51.382;0.016;2022-08-19T10:55:24;6.03;;;1.50;;
31083;SDS011;36333;51.382;0.016;2022-08-19T10:58:16;7.43;;;1.80;;
31083;SDS011;36333;51.382;0.016;2022-08-19T11:00:52;5.38;;;1.35;;
31083;SDS011;36333;51.382;0.016;2022-08-19T11:03:25;9.73;;;1.55;;
31083;SDS011;36333;51.382;0.016;2022-08-19T11:05:58;4.85;;;1.60;;
31083;SDS011;36333;51.382;0.016;2022-08-19T11:08:34;6.55;;;1.67;;
31083;SDS011;36333;51.382;0.016;2022-08-19T11:11:05;8.15;;;1.55;;
31083;SDS011;36333;51.382;0.016;2022-08-19T11:13:34;8.55;;;1.77;;
31083;SDS011;36333;51.382;0.016;2022-08-19T11:18:35;9.02;;;2.00;;
31083;SDS011;36333;51.382;0.016;2022-08-19T11:21:10;10.25;;;1.70;;
31083;SDS011;36333;51.382;0.016;2022-08-19T11:23:47;6.93;;;1.50;;
31083;SDS011;36333;51.382;0.016;2022-08-19T11:26:17;7.32;;;1.73;;
31083;SDS011;36333;51.382;0.016;2022-08-19T11:28:46;3.90;;;1.00;;
31083;SDS011;36333;51.382;0.016;2022-08-19T11:31:18;5.80;;;1.27;;
31083;SDS011;36333;51.382;0.016;2022-08-19T11:33:56;5.75;;;1.40;;
31083;SDS011;36333;51.382;0.016;2022-08-19T11:36:25;11.73;;;1.80;;
31083;SDS011;36333;51.382;0.016;2022-08-19T11:38:55;6.93;;;1.55;;
31083;SDS011;36333;51.382;0.016;2022-08-19T11:41:23;9.80;;;1.50;;
31083;SDS011;36333;51.382;0.016;2022-08-19T11:43:52;7.88;;;1.48;;
31083;SDS011;36333;51.382;0.016;2022-08-19T11:46:23;9.02;;;1.63;;
31083;SDS011;36333;51.382;0.016;2022-08-19T11:48:51;9.52;;;1.60;;
31083;SDS011;36333;51.382;0.016;2022-08-19T11:53:52;7.75;;;1.90;;
31083;SDS011;36333;51.382;0.016;2022-08-19T11:56:23;8.25;;;1.85;;
31083;SDS011;36333;51.382;0.016;2022-08-19T11:58:54;9.60;;;1.65;;
31083;SDS011;36333;51.382;0.016;2022-08-19T12:01:24;10.70;;;1.75;;
31083;SDS011;36333;51.382;0.016;2022-08-19T12:03:58;11.38;;;2.05;;
31083;SDS011;36333;51.382;0.016;2022-08-19T12:06:28;7.07;;;1.83;;
31083;SDS011;36333;51.382;0.016;2022-08-19T12:08:59;9.55;;;2.50;;
31083;SDS011;36333;51.382;0.016;2022-08-19T12:11:30;9.35;;;2.60;;
31083;SDS011;36333;51.382;0.016;2022-08-19T12:14:00;8.25;;;2.35;;
31083;SDS011;36333;51.382;0.016;2022-08-19T12:16:32;11.48;;;2.40;;
31083;SDS011;36333;51.382;0.016;2022-08-19T12:19:00;10.70;;;2.55;;
31083;SDS011;36333;51.382;0.016;2022-08-19T12:21:33;11.57;;;3.00;;
31083;SDS011;36333;51.382;0.016;2022-08-19T12:24:02;12.88;;;3.10;;
31083;SDS011;36333;51.382;0.016;2022-08-19T12:26:32;11.60;;;3.08;;
31083;SDS011;36333;51.382;0.016;2022-08-19T12:29:20;10.75;;;2.97;;
31083;SDS011;36333;51.382;0.016;2022-08-19T12:31:50;10.15;;;2.33;;
31083;SDS011;36333;51.382;0.016;2022-08-19T12:34:18;11.32;;;2.38;;
31083;SDS011;36333;51.382;0.016;2022-08-19T12:36:46;11.38;;;2.80;;
31083;SDS011;36333;51.382;0.016;2022-08-19T12:39:16;11.98;;;3.05;;
31083;SDS011;36333;51.382;0.016;2022-08-19T12:41:44;12.65;;;2.97;;
31083;SDS011;36333;51.382;0.016;2022-08-19T12:44:21;11.30;;;2.60;;
31083;SDS011;36333;51.382;0.016;2022-08-19T12:46:58;9.48;;;2.40;;
31083;SDS011;36333;51.382;0.016;2022-08-19T12:49:41;12.18;;;2.60;;
31083;SDS011;36333;51.382;0.016;2022-08-19T12:52:22;14.50;;;3.90;;
31083;SDS011;36333;51.382;0.016;2022-08-19T12:55:18;13.82;;;2.58;;
31083;SDS011;36333;51.382;0.016;2022-08-19T12:57:46;6.75;;;2.05;;
31083;SDS011;36333;51.382;0.016;2022-08-19T13:00:20;15.75;;;3.05;;
31083;SDS011;36333;51.382;0.016;2022-08-19T13:02:56;11.25;;;2.58;;
31083;SDS011;36333;51.382;0.016;2022-08-19T13:05:26;10.25;;;2.58;;
31083;SDS011;36333;51.382;0.016;2022-08-19T13:07:57;13.30;;;2.83;;
31083;SDS011;36333;51.382;0.016;2022-08-19T13:10:28;12.98;;;2.97;;
31083;SDS011;36333;51.382;0.016;2022-08-19T13:13:14;12.30;;;2.88;;
31083;SDS011;36333;51.382;0.016;2022-08-19T13:15:44;11.45;;;2.72;;
31083;SDS011;36333;51.382;0.016;2022-08-19T13:18:48;15.40;;;3.03;;
31083;SDS011;36333;51.382;0.016;2022-08-19T13:21:19;12.85;;;3.22;;
31083;SDS011;36333;51.382;0.016;2022-08-19T13:23:49;13.80;;;3.00;;
31083;SDS011;36333;51.382;0.016;2022-08-19T13:26:17;14.00;;;2.17;;
31083;SDS011;36333;51.382;0.016;2022-08-19T13:31:34;12.13;;;2.75;;
31083;SDS011;36333;51.382;0.016;2022-08-19T13:34:33;10.75;;;2.60;;
31083;SDS011;36333;51.382;0.016;2022-08-19T13:37:05;14.15;;;2.67;;
31083;SDS011;36333;51.382;0.016;2022-08-19T13:39:34;9.52;;;2.40;;
31083;SDS011;36333;51.382;0.016;2022-08-19T13:42:02;13.65;;;2.70;;
31083;SDS011;36333;51.382;0.016;2022-08-19T13:44:31;12.82;;;2.55;;
31083;SDS011;36333;51.382;0.016;2022-08-19T13:47:05;12.73;;;2.50;;
31083;SDS011;36333;51.382;0.016;2022-08-19T13:49:34;15.38;;;2.47;;
31083;SDS011;36333;51.382;0.016;2022-08-19T13:52:04;14.38;;;3.10;;
31083;SDS011;36333;51.382;0.016;2022-08-19T13:54:32;14.88;;;2.75;;
31083;SDS011;36333;51.382;0.016;2022-08-19T13:57:00;10.10;;;2.60;;
31083;SDS011;36333;51.382;0.016;2022-08-19T13:59:31;16.83;;;3.10;;
31083;SDS011;36333;51.382;0.016;2022-08-19T14:02:00;9.85;;;2.67;;
31083;SDS011;36333;51.382;0.016;2022-08-19T14:04:28;9.15;;;2.60;;
31083;SDS011;36333;51.382;0.016;2022-08-19T14:06:58;10.40;;;2.55;;
31083;SDS011;36333;51.382;0.016;2022-08-19T14:09:26;11.27;;;2.60;;
31083;SDS011;36333;51.382;0.016;2022-08-19T14:11:53;12.45;;;2.70;;
31083;SDS011;36333;51.382;0.016;2022-08-19T14:14:21;10.30;;;2.95;;
31083;SDS011;36333;51.382;0.016;2022-08-19T14:16:54;12.32;;;2.80;;
31083;SDS011;36333;51.382;0.016;2022-08-19T14:19:22;9.25;;;2.38;;
31083;SDS011;36333;51.382;0.016;2022-08-19T14:21:49;14.05;;;2.63;;
31083;SDS011;36333;51.382;0.016;2022-08-19T14:24:17;10.07;;;2.53;;
31083;SDS011;36333;51.382;0.016;2022-08-19T14:26:45;10.13;;;2.17;;
31083;SDS011;36333;51.382;0.016;2022-08-19T14:31:40;10.98;;;2.95;;
31083;SDS011;36333;51.382;0.016;2022-08-19T14:34:10;11.15;;;2.72;;
31083;SDS011;36333;51.382;0.016;2022-08-19T14:36:39;12.65;;;2.45;;
31083;SDS011;36333;51.382;0.016;2022-08-19T14:39:08;9.20;;;2.47;;
31083;SDS011;36333;51.382;0.016;2022-08-19T14:41:40;9.63;;;2.90;;
31083;SDS011;36333;51.382;0.016;2022-08-19T14:44:08;12.63;;;2.50;;
31083;SDS011;36333;51.382;0.016;2022-08-19T14:46:39;10.82;;;2.50;;
31083;SDS011;36333;51.382;0.016;2022-08-19T14:49:15;7.25;;;2.20;;
31083;SDS011;36333;51.382;0.016;2022-08-19T14:51:43;7.72;;;2.30;;
31083;SDS011;36333;51.382;0.016;2022-08-19T14:54:13;9.32;;;2.42;;
31083;SDS011;36333;51.382;0.016;2022-08-19T14:56:41;8.50;;;3.03;;
31083;SDS011;36333;51.382;0.016;2022-08-19T14:59:09;11.77;;;2.72;;
31083;SDS011;36333;51.382;0.016;2022-08-19T15:01:36;10.38;;;2.65;;
31083;SDS011;36333;51.382;0.016;2022-08-19T15:04:04;9.13;;;2.00;;
31083;SDS011;36333;51.382;0.016;2022-08-19T15:09:00;13.32;;;2.90;;
31083;SDS011;36333;51.382;0.016;2022-08-19T15:11:30;13.05;;;2.70;;
31083;SDS011;36333;51.382;0.016;2022-08-19T15:14:00;9.85;;;2.88;;
31083;SDS011;36333;51.382;0.016;2022-08-19T15:16:28;12.23;;;2.78;;
31083;SDS011;36333;51.382;0.016;2022-08-19T15:21:27;11.82;;;2.58;;
31083;SDS011;36333;51.382;0.016;2022-08-19T15:23:57;9.73;;;2.75;;
31083;SDS011;36333;51.382;0.016;2022-08-19T15:26:25;9.98;;;2.50;;
31083;SDS011;36333;51.382;0.016;2022-08-19T15:28:54;10.27;;;2.55;;
31083;SDS011;36333;51.382;0.016;2022-08-19T15:31:23;13.13;;;2.70;;
31083;SDS011;36333;51.382;0.016;2022-08-19T15:33:55;13.10;;;2.70;;
31083;SDS011;36333;51.382;0.016;2022-08-19T15:36:25;14.93;;;2.70;;
31083;SDS011;36333;51.382;0.016;2022-08-19T15:38:55;10.38;;;2.83;;
31083;SDS011;36333;51.382;0.016;2022-08-19T15:41:25;9.35;;;2.40;;
31083;SDS011;36333;51.382;0.016;2022-08-19T15:44:00;10.52;;;2.35;;
31083;SDS011;36333;51.382;0.016;2022-08-19T15:46:33;11.68;;;2.60;;
31083;SDS011;36333;51.382;0.016;2022-08-19T15:49:04;11.40;;;2.97;;
31083;SDS011;36333;51.382;0.016;2022-08-19T15:51:33;13.30;;;3.08;;
31083;SDS011;36333;51.382;0.016;2022-08-19T15:54:02;12.10;;;2.75;;
31083;SDS011;36333;51.382;0.016;2022-08-19T15:56:43;11.52;;;2.38;;
31083;SDS011;36333;51.382;0.016;2022-08-19T15:59:30;8.65;;;2.50;;
31083;SDS011;36333;51.382;0.016;2022-08-19T16:02:17;10.82;;;2.55;;
31083;SDS011;36333;51.382;0.016;2022-08-19T16:05:06;10.05;;;2.70;;
31083;SDS011;36333;51.382;0.016;2022-08-19T16:07:55;11.98;;;2.50;;